Time;durP1;ratioP1;P1;durP2;ratioP2;P2;SDS_P1;SDS_P2;PMS_P1;PMS_P2;Temp;Humidity;BMP_temperature;BMP_pressure;BME280_temperature;BME280_humidity;BME280_pressure;Samples;Min_cycle;Max_cycle;Signal;HPM_P1;HPM_P2
2022/08/01 00:00:41;;;;;;;10.40;6.32;;;18.50;99.90;;;;;;5051762;28;20060;-51
2022/08/01 00:03:07;;;;;;;8.93;5.53;;;18.50;99.90;;;;;;5053121;28;20029;-50
2022/08/01 00:05:33;;;;;;;9.48;5.32;;;18.30;99.90;;;;;;5052625;28;20040;-54
2022/08/01 00:07:58;;;;;;;8.23;5.10;;;18.50;99.90;;;;;;5052770;28;20045;-53
2022/08/01 00:10:24;;;;;;;7.97;5.30;;;18.30;99.90;;;;;;5052351;28;20063;-48
2022/08/01 00:12:50;;;;;;;7.40;4.88;;;18.50;99.90;;;;;;5052618;28;20036;-53
2022/08/01 00:15:17;;;;;;;7.82;5.05;;;18.30;99.90;;;;;;5052767;28;20041;-48
2022/08/01 00:17:43;;;;;;;8.82;5.47;;;18.60;99.90;;;;;;5052803;28;20036;-50
2022/08/01 00:20:11;;;;;;;9.25;5.47;;;18.40;99.90;;;;;;5051488;28;20033;-52
2022/08/01 00:22:37;;;;;;;7.15;5.40;;;18.20;99.90;;;;;;5050740;28;20068;-49
2022/08/01 00:25:04;;;;;;;6.40;4.97;;;18.20;99.90;;;;;;5052594;28;20029;-49
2022/08/01 00:27:31;;;;;;;7.45;5.28;;;18.50;99.90;;;;;;5052047;28;20055;-50
2022/08/01 00:29:57;;;;;;;8.35;5.70;;;18.20;99.90;;;;;;5051307;28;20525;-48
2022/08/01 00:32:22;;;;;;;7.20;5.45;;;18.50;99.90;;;;;;5052407;28;20036;-47
2022/08/01 00:34:48;;;;;;;7.95;5.45;;;18.40;99.90;;;;;;5052262;28;20041;-48
2022/08/01 00:37:14;;;;;;;10.38;6.13;;;18.50;99.90;;;;;;5052032;28;20025;-47
2022/08/01 00:39:39;;;;;;;7.78;5.50;;;18.20;99.90;;;;;;5052383;28;20059;-53
2022/08/01 00:42:12;;;;;;;7.57;5.22;;;18.50;99.90;;;;;;5052742;28;20068;-51
2022/08/01 00:44:38;;;;;;;9.73;5.40;;;18.10;99.90;;;;;;5053815;28;20116;-52
2022/08/01 00:47:05;;;;;;;8.85;5.40;;;18.40;99.90;;;;;;5051999;28;20098;-50
2022/08/01 00:49:31;;;;;;;7.75;5.70;;;18.20;99.90;;;;;;5034385;28;20174;-51
2022/08/01 00:51:58;;;;;;;6.63;5.30;;;18.10;99.90;;;;;;5051918;28;20502;-48
2022/08/01 00:54:24;;;;;;;7.68;5.32;;;18.30;99.90;;;;;;5051692;28;20079;-51
2022/08/01 00:56:50;;;;;;;6.40;4.82;;;18.40;99.90;;;;;;5051655;28;20195;-50
2022/08/01 00:59:18;;;;;;;8.27;5.18;;;18.20;99.90;;;;;;5052108;28;20107;-49
2022/08/01 01:01:44;;;;;;;9.48;4.78;;;18.40;99.90;;;;;;5050333;28;20124;-48
2022/08/01 01:04:10;;;;;;;7.50;4.22;;;18.20;99.90;;;;;;5051793;28;20495;-51
2022/08/01 01:06:47;;;;;;;6.03;4.10;;;18.40;99.90;;;;;;5051872;28;20075;-49
2022/08/01 01:09:50;;;;;;;6.50;4.45;;;18.10;99.90;;;;;;5051304;28;20040;-47
2022/08/01 01:12:33;;;;;;;7.38;4.03;;;18.30;99.90;;;;;;5051349;28;20064;-51
2022/08/01 01:14:59;;;;;;;5.95;4.10;;;18.30;99.90;;;;;;5051298;28;20037;-49
2022/08/01 01:17:32;;;;;;;7.40;4.40;;;18.00;99.90;;;;;;5051713;28;20072;-54
2022/08/01 01:20:00;;;;;;;5.57;3.87;;;18.10;99.90;;;;;;5051282;28;20029;-48
2022/08/01 01:22:37;;;;;;;5.78;4.10;;;18.10;99.90;;;;;;5050106;28;20295;-49
2022/08/01 01:25:27;;;;;;;5.43;3.42;;;18.20;99.90;;;;;;5051512;28;20051;-53
2022/08/01 01:28:07;;;;;;;6.47;4.30;;;18.10;99.90;;;;;;5054764;28;20097;-52
2022/08/01 01:30:34;;;;;;;5.53;4.20;;;18.00;99.90;;;;;;5051775;28;20048;-53
2022/08/01 01:33:03;;;;;;;6.18;4.13;;;18.30;99.90;;;;;;5051273;28;20035;-50
2022/08/01 01:35:34;;;;;;;9.27;4.18;;;18.20;99.90;;;;;;5051190;28;20079;-50
2022/08/01 01:38:13;;;;;;;7.05;4.40;;;18.30;99.90;;;;;;5051568;28;20049;-51
2022/08/01 01:40:40;;;;;;;5.95;4.25;;;18.20;99.90;;;;;;5051004;28;20535;-50
2022/08/01 01:43:11;;;;;;;6.78;4.43;;;18.30;99.90;;;;;;5051950;28;20120;-48
2022/08/01 01:45:38;;;;;;;7.10;4.78;;;18.20;99.90;;;;;;5051426;28;20083;-51
2022/08/01 01:48:06;;;;;;;7.22;4.25;;;18.00;99.90;;;;;;5051036;28;20053;-50
2022/08/01 01:50:32;;;;;;;5.68;4.45;;;17.90;99.90;;;;;;5050710;28;20048;-49
2022/08/01 01:52:59;;;;;;;5.95;4.85;;;18.00;99.90;;;;;;5050208;28;20047;-49
2022/08/01 01:55:26;;;;;;;6.75;4.80;;;17.90;99.90;;;;;;5050747;28;20044;-52
2022/08/01 01:57:53;;;;;;;6.07;4.47;;;18.30;99.90;;;;;;5050735;28;20500;-51
2022/08/01 02:00:20;;;;;;;6.32;4.32;;;18.00;99.90;;;;;;5050631;28;20484;-52
2022/08/01 02:02:46;;;;;;;6.85;4.20;;;17.90;99.90;;;;;;5050876;28;20037;-49
2022/08/01 02:05:13;;;;;;;6.88;4.88;;;18.10;99.90;;;;;;5050729;28;20036;-50
2022/08/01 02:07:40;;;;;;;5.80;4.65;;;18.10;99.90;;;;;;5032653;28;20045;-51
2022/08/01 02:10:06;;;;;;;8.25;4.90;;;18.00;99.90;;;;;;5050478;28;20396;-52
2022/08/01 02:12:37;;;;;;;6.80;4.25;;;18.10;99.90;;;;;;5034460;28;20041;-52
2022/08/01 02:15:04;;;;;;;6.22;4.50;;;17.90;99.90;;;;;;5051375;28;20511;-50
2022/08/01 02:17:30;;;;;;;5.70;3.97;;;18.20;99.90;;;;;;5050378;28;20040;-48
2022/08/01 02:19:57;;;;;;;6.10;3.75;;;17.80;99.90;;;;;;5050816;28;20045;-50
2022/08/01 02:22:28;;;;;;;5.32;3.40;;;17.80;99.90;;;;;;5050480;28;20087;-51
2022/08/01 02:25:40;;;;;;;3.38;2.45;;;18.10;99.90;;;;;;5050399;28;20073;-50
2022/08/01 02:28:10;;;;;;;3.53;1.83;;;17.90;99.90;;;;;;5047533;28;20045;-50
2022/08/01 02:30:40;;;;;;;3.50;2.15;;;17.60;99.90;;;;;;5048735;28;20044;-50
2022/08/01 02:33:11;;;;;;;5.45;2.42;;;18.00;99.90;;;;;;5050277;28;20044;-50
2022/08/01 02:35:41;;;;;;;5.25;2.80;;;17.60;99.90;;;;;;5050350;28;20045;-53
2022/08/01 02:38:10;;;;;;;6.35;2.90;;;17.70;99.90;;;;;;5050382;28;20041;-48
2022/08/01 02:40:39;;;;;;;5.28;3.10;;;17.60;99.90;;;;;;5050321;28;20044;-51
2022/08/01 02:43:08;;;;;;;5.30;2.90;;;17.90;99.90;;;;;;5049839;28;20030;-51
2022/08/01 02:45:37;;;;;;;6.32;3.17;;;17.60;99.90;;;;;;5049986;28;20029;-50
2022/08/01 02:48:13;;;;;;;5.18;3.13;;;17.60;99.90;;;;;;5048683;28;20079;-51
2022/08/01 02:50:43;;;;;;;7.10;3.38;;;17.80;99.90;;;;;;5050225;28;20041;-52
2022/08/01 02:53:12;;;;;;;7.22;3.78;;;18.00;99.90;;;;;;5051143;28;20033;-50
2022/08/01 02:55:42;;;;;;;9.02;4.35;;;17.80;99.90;;;;;;5053781;28;20033;-51
2022/08/01 02:58:10;;;;;;;8.23;4.25;;;17.90;99.90;;;;;;5057937;28;20033;-53
2022/08/01 03:00:36;;;;;;;5.32;4.00;;;18.00;99.90;;;;;;5054322;28;20033;-52
2022/08/01 03:03:05;;;;;;;8.77;4.30;;;17.80;99.90;;;;;;5036619;28;20122;-51
2022/08/01 03:05:32;;;;;;;6.25;3.90;;;17.80;99.90;;;;;;5053862;28;20041;-48
2022/08/01 03:08:00;;;;;;;7.32;4.35;;;17.70;99.90;;;;;;5054797;28;20076;-50
2022/08/01 03:10:29;;;;;;;6.40;4.18;;;18.00;99.90;;;;;;5053501;28;20036;-50
2022/08/01 03:12:57;;;;;;;6.88;3.83;;;17.80;99.90;;;;;;5052119;28;20045;-54
2022/08/01 03:15:26;;;;;;;6.88;4.30;;;17.60;99.90;;;;;;5053786;28;20073;-51
2022/08/01 03:17:54;;;;;;;9.43;5.15;;;17.90;99.90;;;;;;5053854;28;20037;-53
2022/08/01 03:20:24;;;;;;;6.78;4.70;;;17.80;99.90;;;;;;5052679;28;20040;-50
2022/08/01 03:22:52;;;;;;;7.50;4.65;;;17.90;99.90;;;;;;5052258;28;20033;-49
2022/08/01 03:25:19;;;;;;;10.70;4.72;;;17.70;99.90;;;;;;5052223;28;20049;-50
2022/08/01 03:27:50;;;;;;;7.90;4.70;;;17.50;99.90;;;;;;5053833;28;20063;-47
2022/08/01 03:30:16;;;;;;;7.28;4.85;;;17.80;99.90;;;;;;5053225;28;20043;-49
2022/08/01 03:32:42;;;;;;;6.22;4.68;;;17.60;99.90;;;;;;5053537;28;20083;-48
2022/08/01 03:35:08;;;;;;;6.38;4.63;;;17.90;99.90;;;;;;5053563;28;20075;-49
2022/08/01 03:37:44;;;;;;;7.13;4.32;;;17.60;99.90;;;;;;5053486;28;20384;-52
2022/08/01 03:40:20;;;;;;;7.47;3.90;;;17.50;99.90;;;;;;5053104;28;20483;-49
2022/08/01 03:42:49;;;;;;;5.53;3.33;;;17.50;99.90;;;;;;5054435;28;20041;-49
2022/08/01 03:45:45;;;;;;;7.80;3.40;;;17.70;99.90;;;;;;5054662;28;20422;-52
2022/08/01 03:48:17;;;;;;;8.18;3.15;;;17.70;99.90;;;;;;5052152;28;20053;-50
2022/08/01 03:50:47;;;;;;;6.57;3.10;;;17.40;99.90;;;;;;5052675;28;20102;-48
2022/08/01 03:53:14;;;;;;;4.30;2.85;;;17.50;99.90;;;;;;5053465;28;20044;-47
2022/08/01 03:55:43;;;;;;;4.50;2.55;;;17.50;99.90;;;;;;5053016;28;20041;-51
2022/08/01 03:58:09;;;;;;;4.85;2.50;;;17.50;99.90;;;;;;5053503;28;20071;-47
2022/08/01 04:00:38;;;;;;;5.03;3.30;;;17.60;99.90;;;;;;5052535;28;20040;-51
2022/08/01 04:03:06;;;;;;;5.70;2.97;;;17.60;99.90;;;;;;5053145;28;20037;-51
2022/08/01 04:05:32;;;;;;;8.45;2.28;;;17.50;99.90;;;;;;5052309;28;20059;-53
2022/08/01 04:07:59;;;;;;;5.20;2.47;;;17.60;99.90;;;;;;5052653;28;20480;-53
2022/08/01 04:10:25;;;;;;;4.50;2.42;;;17.30;99.90;;;;;;5052715;28;20063;-50
2022/08/01 04:12:51;;;;;;;7.72;2.72;;;17.30;99.90;;;;;;5052016;28;20039;-52
2022/08/01 04:15:17;;;;;;;5.40;2.58;;;17.40;99.90;;;;;;5052532;28;20048;-50
2022/08/01 04:17:43;;;;;;;5.43;2.25;;;17.40;99.90;;;;;;5052520;28;20485;-52
2022/08/01 04:20:10;;;;;;;7.45;2.30;;;17.60;99.90;;;;;;5052229;28;20072;-49
2022/08/01 04:22:37;;;;;;;5.28;2.45;;;17.30;99.90;;;;;;5052673;28;20071;-53
2022/08/01 04:25:09;;;;;;;6.63;2.70;;;17.30;99.90;;;;;;5051159;28;20073;-52
2022/08/01 04:27:40;;;;;;;6.97;2.63;;;17.50;99.90;;;;;;5053017;28;20374;-53
2022/08/01 04:30:06;;;;;;;6.97;2.60;;;17.20;99.90;;;;;;5053717;28;20129;-52
2022/08/01 04:32:37;;;;;;;6.40;2.45;;;17.20;99.90;;;;;;5052644;28;20120;-48
2022/08/01 04:35:07;;;;;;;5.60;2.33;;;17.30;99.90;;;;;;5053677;28;20086;-52
2022/08/01 04:37:36;;;;;;;3.95;2.30;;;17.60;99.90;;;;;;5052341;28;20099;-51
2022/08/01 04:40:05;;;;;;;7.10;2.70;;;17.30;99.90;;;;;;5051927;28;20087;-50
2022/08/01 04:42:32;;;;;;;6.95;2.80;;;17.30;99.90;;;;;;5051982;28;20086;-48
2022/08/01 04:44:59;;;;;;;5.72;3.00;;;17.60;99.90;;;;;;5051540;28;20092;-52
2022/08/01 04:47:26;;;;;;;7.30;3.15;;;17.30;99.90;;;;;;5050729;28;20029;-51
2022/08/01 04:49:53;;;;;;;7.43;2.95;;;17.50;99.90;;;;;;5051720;28;20056;-51
2022/08/01 04:52:19;;;;;;;6.15;3.03;;;17.50;99.90;;;;;;5052474;28;20516;-48
2022/08/01 04:54:46;;;;;;;7.20;3.33;;;17.50;99.90;;;;;;5052570;28;20127;-50
2022/08/01 04:57:12;;;;;;;8.07;3.30;;;17.30;99.90;;;;;;5052870;28;20496;-51
2022/08/01 04:59:42;;;;;;;9.63;2.97;;;17.30;99.90;;;;;;5053954;28;20037;-51
2022/08/01 05:02:14;;;;;;;6.38;3.13;;;17.50;99.90;;;;;;5054450;28;20160;-50
2022/08/01 05:04:41;;;;;;;7.45;2.88;;;17.50;99.90;;;;;;5052472;28;20029;-51
2022/08/01 05:07:08;;;;;;;6.25;3.17;;;17.50;99.90;;;;;;5051234;28;20094;-47
2022/08/01 05:09:34;;;;;;;8.10;3.28;;;17.20;99.90;;;;;;5052562;28;20358;-50
2022/08/01 05:12:01;;;;;;;7.40;3.13;;;17.50;99.90;;;;;;5051354;28;20049;-52
2022/08/01 05:14:28;;;;;;;10.85;3.42;;;17.20;99.90;;;;;;5052857;28;20025;-52
2022/08/01 05:16:54;;;;;;;8.10;3.80;;;17.40;99.90;;;;;;5050698;28;20045;-50
2022/08/01 05:19:20;;;;;;;12.25;3.92;;;17.20;99.90;;;;;;5052171;28;20164;-50
2022/08/01 05:21:46;;;;;;;7.85;3.60;;;17.20;99.90;;;;;;5049217;28;20043;-51
2022/08/01 05:24:12;;;;;;;12.32;4.07;;;17.30;99.90;;;;;;5051307;28;20037;-50
2022/08/01 05:26:38;;;;;;;10.85;3.75;;;17.60;99.90;;;;;;5051998;28;20617;-50
2022/08/01 05:29:04;;;;;;;11.77;3.70;;;17.40;99.90;;;;;;5050799;28;20039;-51
2022/08/01 05:31:33;;;;;;;10.23;3.63;;;17.40;99.90;;;;;;5051031;28;20033;-51
2022/08/01 05:34:00;;;;;;;10.80;3.47;;;17.20;99.90;;;;;;5050009;28;20040;-48
2022/08/01 05:36:26;;;;;;;12.52;4.10;;;17.50;99.90;;;;;;5050728;28;20048;-49
2022/08/01 05:38:52;;;;;;;11.82;3.53;;;17.40;99.90;;;;;;5049513;28;20045;-49
2022/08/01 05:41:18;;;;;;;11.75;3.80;;;17.10;99.90;;;;;;5050932;28;20041;-50
2022/08/01 05:43:43;;;;;;;12.25;3.47;;;17.20;99.90;;;;;;5050494;28;20492;-50
2022/08/01 05:46:09;;;;;;;11.73;3.85;;;17.20;99.90;;;;;;5049326;28;20171;-50
2022/08/01 05:48:35;;;;;;;15.20;3.75;;;17.20;99.90;;;;;;5050557;28;20053;-50
2022/08/01 05:51:00;;;;;;;11.63;3.70;;;17.40;99.90;;;;;;5050715;28;20052;-52
2022/08/01 05:53:26;;;;;;;12.38;3.45;;;17.30;99.90;;;;;;5050929;28;20060;-53
2022/08/01 05:55:52;;;;;;;14.35;3.60;;;17.30;99.90;;;;;;5050663;28;20082;-51
2022/08/01 05:58:17;;;;;;;10.45;2.80;;;17.30;99.90;;;;;;5052113;28;20041;-52
2022/08/01 06:00:43;;;;;;;12.32;3.28;;;17.40;99.90;;;;;;5053691;28;20029;-50
2022/08/01 06:03:11;;;;;;;11.30;3.15;;;17.30;99.90;;;;;;5050472;28;20040;-51
2022/08/01 06:05:37;;;;;;;17.60;4.05;;;17.40;99.90;;;;;;5050799;28;20037;-53
2022/08/01 06:08:03;;;;;;;8.50;3.35;;;17.40;99.90;;;;;;5050355;28;20068;-54
2022/08/01 06:10:29;;;;;;;13.23;3.45;;;17.30;99.90;;;;;;5050680;28;20562;-54
2022/08/01 06:12:55;;;;;;;14.18;3.63;;;17.40;99.90;;;;;;5048827;28;20120;-50
2022/08/01 06:15:20;;;;;;;13.00;3.45;;;17.40;99.90;;;;;;5050233;28;20067;-50
2022/08/01 06:17:46;;;;;;;15.07;4.05;;;17.60;99.90;;;;;;5050328;28;20044;-52
2022/08/01 06:20:12;;;;;;;15.00;3.75;;;17.50;99.90;;;;;;5050443;28;20496;-48
2022/08/01 06:22:38;;;;;;;13.80;3.33;;;17.40;99.90;;;;;;5050461;28;20143;-51
2022/08/01 06:25:04;;;;;;;11.77;3.20;;;17.50;99.90;;;;;;5050234;28;20036;-49
2022/08/01 06:27:30;;;;;;;12.85;3.25;;;17.30;99.90;;;;;;5049142;28;20098;-52
2022/08/01 06:29:56;;;;;;;12.95;3.08;;;17.50;99.90;;;;;;5053180;28;20412;-49
2022/08/01 06:32:22;;;;;;;14.07;3.20;;;17.50;99.90;;;;;;5054833;28;20366;-52
2022/08/01 06:34:48;;;;;;;13.30;3.38;;;17.40;99.90;;;;;;5053998;28;20400;-51
2022/08/01 06:37:15;;;;;;;11.40;3.15;;;17.40;99.90;;;;;;5054312;28;20079;-53
2022/08/01 06:39:41;;;;;;;11.48;3.30;;;17.50;99.90;;;;;;5054131;28;20044;-50
2022/08/01 06:42:09;;;;;;;13.35;3.63;;;17.40;99.90;;;;;;5054410;28;20511;-50
2022/08/01 06:44:35;;;;;;;13.10;3.22;;;17.50;99.90;;;;;;5054434;28;20492;-47
2022/08/01 06:47:00;;;;;;;13.95;3.50;;;17.60;99.90;;;;;;5055956;28;20117;-53
2022/08/01 06:49:26;;;;;;;15.40;3.50;;;17.50;99.90;;;;;;5055596;28;20403;-53
2022/08/01 06:51:52;;;;;;;12.63;2.95;;;17.60;99.90;;;;;;5054293;28;20060;-51
2022/08/01 06:54:18;;;;;;;12.35;2.85;;;17.50;99.90;;;;;;5054152;28;20045;-50
2022/08/01 06:56:43;;;;;;;17.08;3.30;;;17.50;99.90;;;;;;5050582;28;20063;-49
2022/08/01 06:59:09;;;;;;;8.40;2.80;;;17.50;99.90;;;;;;5050908;28;20058;-49
2022/08/01 07:01:35;;;;;;;10.27;2.97;;;17.40;99.90;;;;;;5052285;28;20037;-50
2022/08/01 07:04:01;;;;;;;14.75;3.20;;;17.60;99.90;;;;;;5052076;28;20029;-52
2022/08/01 07:06:27;;;;;;;11.38;3.28;;;17.70;99.90;;;;;;5052021;28;20082;-52
2022/08/01 07:08:53;;;;;;;13.77;3.22;;;17.90;99.90;;;;;;5050956;28;20033;-51
2022/08/01 07:11:20;;;;;;;14.60;3.03;;;17.90;99.90;;;;;;5051958;28;20041;-48
2022/08/01 07:13:45;;;;;;;11.73;2.85;;;18.00;99.90;;;;;;5050036;28;20037;-49
2022/08/01 07:16:12;;;;;;;14.88;2.90;;;18.00;99.90;;;;;;5051378;28;20112;-52
2022/08/01 07:18:38;;;;;;;11.18;2.60;;;17.90;99.90;;;;;;5050977;28;20476;-49
2022/08/01 07:21:03;;;;;;;12.20;2.80;;;17.90;99.90;;;;;;5050325;28;20073;-51
2022/08/01 07:23:29;;;;;;;14.60;3.00;;;17.90;99.90;;;;;;5050802;28;20423;-53
2022/08/01 07:25:55;;;;;;;12.75;2.58;;;17.90;99.90;;;;;;5051042;28;20124;-51
2022/08/01 07:28:20;;;;;;;14.18;2.58;;;18.00;99.90;;;;;;5053548;28;20075;-52
2022/08/01 07:30:46;;;;;;;15.07;2.88;;;17.90;99.90;;;;;;5051615;28;20083;-49
2022/08/01 07:33:12;;;;;;;12.15;2.33;;;18.10;99.90;;;;;;5051594;28;20049;-51
2022/08/01 07:35:39;;;;;;;14.35;2.88;;;18.00;99.90;;;;;;5051710;28;20044;-51
2022/08/01 07:38:06;;;;;;;12.60;3.15;;;18.10;99.90;;;;;;5049142;28;20092;-50
2022/08/01 07:40:32;;;;;;;12.85;2.40;;;18.20;99.90;;;;;;5049920;28;20061;-51
2022/08/01 07:42:58;;;;;;;11.48;2.55;;;18.20;99.90;;;;;;5050742;28;20084;-48
2022/08/01 07:45:23;;;;;;;16.35;4.00;;;18.20;99.90;;;;;;5051332;28;20041;-52
2022/08/01 07:47:49;;;;;;;12.68;2.90;;;18.30;99.90;;;;;;5049490;28;20059;-51
2022/08/01 07:50:15;;;;;;;11.95;3.10;;;18.30;99.90;;;;;;5050575;28;20044;-50
2022/08/01 07:52:42;;;;;;;13.07;3.22;;;18.50;99.90;;;;;;5051408;28;20041;-50
2022/08/01 07:55:10;;;;;;;10.38;2.97;;;18.50;99.90;;;;;;5050112;28;20045;-50
2022/08/01 07:57:36;;;;;;;13.50;3.00;;;18.60;99.90;;;;;;5051269;28;20090;-49
2022/08/01 08:00:04;;;;;;;15.07;2.85;;;18.70;99.90;;;;;;5050275;28;20075;-47
2022/08/01 08:02:30;;;;;;;11.25;3.40;;;18.80;99.90;;;;;;5049655;28;20045;-49
2022/08/01 08:04:55;;;;;;;14.32;2.72;;;18.80;99.90;;;;;;5049094;28;20477;-50
2022/08/01 08:07:21;;;;;;;13.40;2.90;;;18.80;99.90;;;;;;5050221;28;20088;-53
2022/08/01 08:09:47;;;;;;;12.13;3.05;;;18.70;99.90;;;;;;5050377;28;20033;-51
2022/08/01 08:12:12;;;;;;;14.15;3.08;;;18.70;99.90;;;;;;5048255;28;20658;-49
2022/08/01 08:14:38;;;;;;;18.08;3.65;;;18.50;99.90;;;;;;5053302;28;20116;-49
2022/08/01 08:17:05;;;;;;;13.63;3.17;;;18.60;99.90;;;;;;5047584;28;20120;-51
2022/08/01 08:19:33;;;;;;;12.23;2.92;;;18.70;99.90;;;;;;5050755;28;20587;-51
2022/08/01 08:21:59;;;;;;;10.77;2.90;;;18.60;99.90;;;;;;5050227;28;20457;-53
2022/08/01 08:24:26;;;;;;;12.27;2.50;;;18.70;99.90;;;;;;5050901;28;20400;-52
2022/08/01 08:26:57;;;;;;;18.63;3.08;;;18.90;99.90;;;;;;5048107;28;20123;-48
2022/08/01 08:29:24;;;;;;;12.35;2.72;;;19.10;99.90;;;;;;5049804;28;20476;-52
2022/08/01 08:31:50;;;;;;;14.73;2.88;;;19.20;99.90;;;;;;5046592;28;20029;-52
2022/08/01 08:34:16;;;;;;;15.52;2.85;;;19.40;99.90;;;;;;5045141;28;20041;-49
2022/08/01 08:36:42;;;;;;;16.63;2.42;;;19.50;99.90;;;;;;5044620;28;20045;-50
2022/08/01 08:39:08;;;;;;;12.15;2.22;;;19.40;99.90;;;;;;5047963;28;20522;-48
2022/08/01 08:41:35;;;;;;;9.45;2.13;;;19.40;99.90;;;;;;5050240;28;20056;-48
2022/08/01 08:44:08;;;;;;;8.98;2.08;;;19.40;99.90;;;;;;5051636;28;20033;-47
2022/08/01 08:46:50;;;;;;;11.25;2.22;;;19.30;99.90;;;;;;5052254;28;20388;-47
2022/08/01 08:49:19;;;;;;;10.55;2.03;;;19.50;99.90;;;;;;5052045;28;20458;-49
2022/08/01 08:51:48;;;;;;;11.98;2.78;;;19.50;99.90;;;;;;5032079;28;20044;-47
2022/08/01 08:54:15;;;;;;;11.55;2.33;;;19.50;99.90;;;;;;5033133;28;20025;-50
2022/08/01 08:56:43;;;;;;;13.75;2.88;;;19.50;99.90;;;;;;5033423;28;20122;-48
2022/08/01 08:59:13;;;;;;;10.18;2.40;;;19.70;99.90;;;;;;5032044;28;20025;-47
2022/08/01 09:01:39;;;;;;;11.82;2.45;;;19.50;99.90;;;;;;5033081;28;20064;-50
2022/08/01 09:04:05;;;;;;;11.73;2.30;;;19.50;99.90;;;;;;5032809;28;20163;-48
2022/08/01 09:06:32;;;;;;;12.45;2.78;;;19.50;99.90;;;;;;5030281;28;20056;-50
2022/08/01 09:08:58;;;;;;;8.55;2.20;;;19.50;99.90;;;;;;5043815;28;20045;-51
2022/08/01 09:11:25;;;;;;;11.70;2.67;;;19.60;99.90;;;;;;5044620;28;20042;-52
2022/08/01 09:14:11;;;;;;;10.77;2.40;;;19.60;99.90;;;;;;5031620;28;20034;-54
2022/08/01 09:16:41;;;;;;;9.90;2.38;;;19.70;99.90;;;;;;5032089;28;20111;-49
2022/08/01 09:19:19;;;;;;;13.63;3.05;;;19.50;99.90;;;;;;5030359;28;20088;-51
2022/08/01 09:21:59;;;;;;;10.50;2.13;;;19.80;99.90;;;;;;5031550;28;20167;-50
2022/08/01 09:24:28;;;;;;;12.95;2.35;;;19.70;99.90;;;;;;5039453;28;20059;-52
2022/08/01 09:26:54;;;;;;;8.75;2.20;;;20.20;99.90;;;;;;5032796;28;20587;-49
2022/08/01 09:29:26;;;;;;;10.57;2.05;;;20.20;99.90;;;;;;5032489;28;20556;-50
2022/08/01 09:31:52;;;;;;;12.85;2.85;;;20.20;99.90;;;;;;5030130;28;20793;-49
2022/08/01 09:34:25;;;;;;;10.43;2.42;;;20.50;99.90;;;;;;5031656;28;20116;-49
2022/08/01 09:36:58;;;;;;;10.10;2.42;;;20.60;99.90;;;;;;5029185;28;20048;-52
2022/08/01 09:39:25;;;;;;;17.63;2.92;;;20.50;99.90;;;;;;5028915;28;20036;-50
2022/08/01 09:41:52;;;;;;;8.38;2.03;;;20.50;99.90;;;;;;5027316;28;20081;-48
2022/08/01 09:44:20;;;;;;;12.43;1.95;;;20.60;99.90;;;;;;5032305;28;20033;-48
2022/08/01 09:46:54;;;;;;;8.82;1.88;;;20.30;99.90;;;;;;5029087;28;20037;-51
2022/08/01 09:49:31;;;;;;;15.00;2.30;;;20.60;99.90;;;;;;5029958;28;20120;-51
2022/08/01 09:52:09;;;;;;;7.90;2.45;;;20.70;99.90;;;;;;5028499;28;20118;-50
2022/08/01 09:54:34;;;;;;;9.93;2.45;;;20.50;99.90;;;;;;5027544;28;20041;-51
2022/08/01 09:57:16;;;;;;;9.30;2.13;;;20.60;99.90;;;;;;5029773;28;20060;-51
2022/08/01 09:59:46;;;;;;;8.98;1.70;;;20.80;99.90;;;;;;5030246;28;20040;-51
2022/08/01 10:02:15;;;;;;;7.95;1.60;;;20.70;99.90;;;;;;5031987;28;20144;-47
2022/08/01 10:04:48;;;;;;;8.40;2.13;;;20.90;99.90;;;;;;5030856;28;20507;-54
2022/08/01 10:07:15;;;;;;;7.82;1.70;;;21.10;99.90;;;;;;5032137;28;20033;-51
2022/08/01 10:09:42;;;;;;;11.07;2.20;;;21.20;99.90;;;;;;5032551;28;20041;-53
2022/08/01 10:12:10;;;;;;;8.40;1.80;;;21.20;99.90;;;;;;5032970;28;20056;-50
2022/08/01 10:14:37;;;;;;;8.32;2.20;;;21.30;99.90;;;;;;5031696;28;20033;-53
2022/08/01 10:17:06;;;;;;;11.23;2.35;;;21.20;99.90;;;;;;5030585;28;20041;-48
2022/08/01 10:19:34;;;;;;;8.73;2.08;;;21.30;99.90;;;;;;5032550;28;20150;-50
2022/08/01 10:22:00;;;;;;;6.90;1.88;;;21.40;99.90;;;;;;5031014;28;20049;-50
2022/08/01 10:24:29;;;;;;;11.90;2.53;;;21.50;99.90;;;;;;5035120;28;20061;-50
2022/08/01 10:27:02;;;;;;;9.45;2.28;;;21.80;99.90;;;;;;5030609;28;20047;-53
2022/08/01 10:29:31;;;;;;;6.25;1.83;;;21.50;99.90;;;;;;5030957;28;20402;-52
2022/08/01 10:31:57;;;;;;;8.32;1.80;;;21.60;99.90;;;;;;5030377;28;20080;-49
2022/08/01 10:34:24;;;;;;;4.95;1.50;;;21.70;99.90;;;;;;5032053;28;20072;-51
2022/08/01 10:36:50;;;;;;;7.13;1.55;;;21.80;99.90;;;;;;5030614;28;20221;-47
2022/08/01 10:39:16;;;;;;;7.03;1.65;;;21.80;99.90;;;;;;5029913;28;20041;-52
2022/08/01 10:41:42;;;;;;;6.78;1.40;;;21.80;99.90;;;;;;5029733;28;20532;-52
2022/08/01 10:44:09;;;;;;;6.35;1.27;;;21.80;99.90;;;;;;5031477;28;20052;-50
2022/08/01 10:46:42;;;;;;;5.10;1.20;;;21.90;99.90;;;;;;5036255;28;20061;-50
2022/08/01 10:49:12;;;;;;;5.25;1.33;;;22.00;99.90;;;;;;5031739;28;20088;-48
2022/08/01 10:51:39;;;;;;;5.85;1.45;;;22.20;99.90;;;;;;5027756;28;20029;-53
2022/08/01 10:54:12;;;;;;;8.48;1.50;;;22.20;99.90;;;;;;5029067;28;20036;-49
2022/08/01 10:56:50;;;;;;;4.53;1.08;;;22.20;99.90;;;;;;5030605;28;20037;-51
2022/08/01 10:59:30;;;;;;;5.85;1.20;;;22.20;99.90;;;;;;5031976;28;20033;-50
2022/08/01 11:02:04;;;;;;;8.23;1.63;;;22.10;99.90;;;;;;5030003;28;20052;-53
2022/08/01 11:04:42;;;;;;;;;;;22.20;99.90;;;;;;5031569;28;20048;-46
2022/08/01 11:07:19;;;;;;;9.63;1.52;;;22.20;99.90;;;;;;5032656;28;19913;-49
2022/08/01 11:09:47;;;;;;;4.63;1.13;;;22.20;99.90;;;;;;5031639;28;20033;-50
2022/08/01 11:12:17;;;;;;;5.93;1.50;;;22.30;99.90;;;;;;5032946;28;20049;-51
2022/08/01 11:14:58;;;;;;;7.22;1.58;;;22.50;99.90;;;;;;5037761;28;20045;-50
2022/08/01 11:17:47;;;;;;;6.97;1.50;;;22.20;99.90;;;;;;5038600;28;20541;-54
2022/08/01 11:20:12;;;;;;;6.65;1.40;;;22.00;99.90;;;;;;5037002;28;20108;-50
2022/08/01 11:22:57;;;;;;;5.78;1.45;;;21.80;99.90;;;;;;5036981;28;20174;-49
2022/08/01 11:25:23;;;;;;;6.13;1.42;;;22.00;99.90;;;;;;5036058;28;20029;-52
2022/08/01 11:27:48;;;;;;;7.18;1.40;;;22.10;99.90;;;;;;5044099;28;20041;-52
2022/08/01 11:30:14;;;;;;;6.65;1.17;;;22.10;99.90;;;;;;5036850;28;20396;-53
2022/08/01 11:32:57;;;;;;;5.55;1.88;;;22.10;99.90;;;;;;5038780;28;20043;-52
2022/08/01 11:35:26;;;;;;;6.95;1.45;;;22.30;99.90;;;;;;5039421;28;20120;-50
2022/08/01 11:37:55;;;;;;;3.75;1.20;;;22.30;99.90;;;;;;5035901;28;20447;-50
2022/08/01 11:40:26;;;;;;;6.07;1.38;;;22.30;99.90;;;;;;5033535;28;20055;-51
2022/08/01 11:43:16;;;;;;;5.25;1.10;;;22.40;99.90;;;;;;5035604;28;20033;-51
2022/08/01 11:45:50;;;;;;;9.32;1.40;;;22.30;99.90;;;;;;5028541;28;20057;-52
2022/08/01 11:48:23;;;;;;;7.43;1.58;;;22.50;99.90;;;;;;5036611;28;20056;-50
2022/08/01 11:50:57;;;;;;;6.95;1.30;;;22.20;99.90;;;;;;5031769;28;20179;-49
2022/08/01 11:53:22;;;;;;;4.95;1.10;;;22.20;99.90;;;;;;5035755;28;20392;-50
2022/08/01 11:55:53;;;;;;;4.03;0.95;;;22.20;99.90;;;;;;5034493;28;20112;-50
2022/08/01 11:58:24;;;;;;;5.32;1.20;;;22.20;99.90;;;;;;5050731;28;20045;-50
2022/08/01 12:00:52;;;;;;;3.63;1.00;;;22.50;99.90;;;;;;5051779;28;20043;-52
2022/08/01 12:03:27;;;;;;;4.85;1.00;;;22.30;99.90;;;;;;5051254;28;20535;-49
2022/08/01 12:05:54;;;;;;;3.05;0.90;;;22.30;99.90;;;;;;5050036;28;20045;-50
2022/08/01 12:08:27;;;;;;;7.05;0.90;;;22.30;99.90;;;;;;5051335;28;20044;-51
2022/08/01 12:10:53;;;;;;;5.65;1.00;;;22.40;99.90;;;;;;5052968;28;20040;-52
2022/08/01 12:13:20;;;;;;;5.70;1.40;;;22.50;99.90;;;;;;5052527;28;20045;-51
2022/08/01 12:15:46;;;;;;;3.92;1.00;;;22.60;99.90;;;;;;5053059;28;20045;-52
2022/08/01 12:18:12;;;;;;;6.22;1.05;;;22.70;99.90;;;;;;5052756;28;20048;-51
2022/08/01 12:20:43;;;;;;;6.60;1.48;;;23.00;99.90;;;;;;5052518;28;20041;-49
2022/08/01 12:23:12;;;;;;;6.35;1.42;;;22.80;99.00;;;;;;5052617;28;20462;-54
2022/08/01 12:25:39;;;;;;;7.88;1.40;;;22.80;99.90;;;;;;5049595;28;20059;-47
2022/08/01 12:28:07;;;;;;;5.40;1.17;;;22.90;99.90;;;;;;5052593;28;20076;-47
2022/08/01 12:30:34;;;;;;;6.35;1.10;;;23.10;99.90;;;;;;5052538;28;20033;-50
2022/08/01 12:33:02;;;;;;;4.97;0.95;;;23.20;99.50;;;;;;5052502;28;20099;-50
2022/08/01 12:35:30;;;;;;;4.20;0.85;;;23.40;99.90;;;;;;5052191;28;20099;-49
2022/08/01 12:38:04;;;;;;;5.47;0.98;;;23.50;99.70;;;;;;5052153;28;20573;-50
2022/08/01 12:40:40;;;;;;;;;;;23.30;98.60;;;;;;5052914;28;20469;-52
2022/08/01 12:43:08;;;;;;;3.90;0.95;;;23.20;97.70;;;;;;5052256;28;20287;-51
2022/08/01 12:45:36;;;;;;;5.95;1.10;;;23.20;96.50;;;;;;5051931;28;20072;-51
2022/08/01 12:48:08;;;;;;;4.10;0.93;;;23.20;97.40;;;;;;5051960;28;20483;-49
2022/08/01 12:50:36;;;;;;;3.85;0.82;;;23.30;98.60;;;;;;5052165;28;20047;-52